Time;durP1;ratioP1;P1;durP2;ratioP2;P2;SDS_P1;SDS_P2;PMS_P1;PMS_P2;Temp;Humidity;BMP_temperature;BMP_pressure;BME280_temperature;BME280_humidity;BME280_pressure;Samples;Min_cycle;Max_cycle;Signal;HPM_P1;HPM_P2
2023/10/21 00:00:22;;;;;;;31.85;12.38;;;10.50;99.90;;;;;;5040246;28;20107;-76
2023/10/21 00:02:48;;;;;;;36.92;11.80;;;10.50;99.90;;;;;;5039814;28;20629;-76
2023/10/21 00:05:13;;;;;;;42.85;10.35;;;10.50;99.90;;;;;;5039883;28;20072;-76
2023/10/21 00:07:39;;;;;;;31.90;12.18;;;10.50;99.90;;;;;;5032797;28;20136;-76
2023/10/21 00:10:08;;;;;;;34.85;11.27;;;10.50;99.90;;;;;;5024339;28;20060;-76
2023/10/21 00:12:35;;;;;;;33.13;11.95;;;10.40;99.90;;;;;;5022803;28;20042;-76
2023/10/21 00:15:00;;;;;;;38.85;12.73;;;10.40;99.90;;;;;;5025673;28;20049;-75
2023/10/21 00:17:28;;;;;;;26.20;8.77;;;10.40;99.90;;;;;;5024993;28;20128;-75
2023/10/21 00:19:53;;;;;;;44.70;11.90;;;10.40;99.90;;;;;;5024678;28;20496;-75
2023/10/21 00:22:19;;;;;;;39.55;11.07;;;10.40;99.90;;;;;;5024914;28;20059;-75
2023/10/21 00:24:45;;;;;;;40.72;12.20;;;10.40;99.90;;;;;;5024192;28;20072;-75
2023/10/21 00:27:10;;;;;;;39.40;10.82;;;10.40;99.90;;;;;;5042335;28;20052;-76
2023/10/21 00:29:36;;;;;;;26.65;10.15;;;10.40;99.90;;;;;;5041975;28;20127;-76
2023/10/21 00:32:04;;;;;;;41.35;10.70;;;10.40;99.90;;;;;;5023579;28;20041;-75
2023/10/21 00:34:38;;;;;;;25.20;10.13;;;10.40;99.90;;;;;;5023106;28;20049;-76
2023/10/21 00:37:04;;;;;;;42.03;11.10;;;10.40;99.90;;;;;;5023227;28;20052;-75
2023/10/21 00:39:34;;;;;;;26.35;8.80;;;10.40;99.90;;;;;;5023000;28;20056;-75
2023/10/21 00:42:00;;;;;;;36.25;10.40;;;10.40;99.90;;;;;;5022421;28;20045;-76
2023/10/21 00:44:26;;;;;;;34.80;9.98;;;10.40;99.90;;;;;;5023586;28;20455;-76
2023/10/21 00:46:52;;;;;;;26.52;8.57;;;10.40;99.90;;;;;;5023423;28;20045;-76
2023/10/21 00:49:17;;;;;;;37.65;10.20;;;10.40;99.90;;;;;;5024440;28;20164;-76
2023/10/21 00:51:44;;;;;;;38.47;10.75;;;10.40;99.90;;;;;;5023924;28;20045;-76
2023/10/21 00:54:12;;;;;;;39.05;11.60;;;10.30;99.90;;;;;;5025133;28;20052;-76
2023/10/21 00:56:38;;;;;;;37.75;11.50;;;10.30;99.90;;;;;;5042209;28;20059;-75
2023/10/21 00:59:04;;;;;;;42.42;11.13;;;10.30;99.90;;;;;;5024031;28;20120;-75
2023/10/21 01:01:29;;;;;;;35.90;9.68;;;10.30;99.90;;;;;;5023886;28;20067;-75
2023/10/21 01:03:55;;;;;;;35.92;10.85;;;10.30;99.90;;;;;;5033263;28;20057;-75
2023/10/21 01:06:21;;;;;;;52.95;12.20;;;10.20;99.90;;;;;;5041528;28;20506;-76
2023/10/21 01:08:46;;;;;;;44.90;13.35;;;10.20;99.90;;;;;;5024414;28;20045;-75
2023/10/21 01:13:54;;;;;;;33.10;11.60;;;10.20;99.90;;;;;;5041273;22;20052;-76
2023/10/21 01:16:20;;;;;;;42.30;10.32;;;10.20;99.90;;;;;;5043684;28;20068;-77
2023/10/21 01:18:45;;;;;;;40.33;11.02;;;10.20;99.90;;;;;;5042500;28;20083;-77
2023/10/21 01:21:11;;;;;;;38.33;10.43;;;10.20;99.90;;;;;;5043081;28;20045;-77
2023/10/21 01:23:37;;;;;;;34.58;10.32;;;10.20;99.90;;;;;;5044636;28;20037;-77
2023/10/21 01:26:04;;;;;;;33.10;9.95;;;10.20;99.90;;;;;;5043014;28;20379;-77
2023/10/21 01:28:30;;;;;;;38.40;11.10;;;10.20;99.90;;;;;;5042512;28;20052;-77
2023/10/21 01:30:56;;;;;;;30.40;8.38;;;10.10;99.90;;;;;;5042629;28;20135;-76
2023/10/21 01:33:22;;;;;;;41.10;12.18;;;10.10;99.90;;;;;;5043171;28;20120;-77
2023/10/21 01:35:47;;;;;;;46.70;11.82;;;10.10;99.90;;;;;;5043670;28;20041;-76
2023/10/21 01:38:15;;;;;;;20.33;8.40;;;10.10;99.90;;;;;;5041652;28;20048;-77
2023/10/21 01:40:40;;;;;;;41.60;9.80;;;10.10;99.90;;;;;;5041929;28;20525;-77
2023/10/21 01:43:06;;;;;;;42.70;11.20;;;10.10;99.90;;;;;;5041726;28;20045;-76
2023/10/21 01:45:34;;;;;;;38.95;9.25;;;10.10;99.90;;;;;;5043002;28;20040;-77
2023/10/21 01:48:00;;;;;;;24.27;7.78;;;10.00;99.90;;;;;;5042159;28;20098;-76
2023/10/21 01:50:25;;;;;;;24.58;7.60;;;10.10;99.90;;;;;;5042150;28;20048;-76
2023/10/21 01:52:51;;;;;;;31.85;9.85;;;10.00;99.90;;;;;;5042590;28;20116;-77
2023/10/21 01:55:16;;;;;;;24.38;6.28;;;10.00;99.90;;;;;;5042113;28;20490;-76
2023/10/21 01:57:42;;;;;;;25.38;9.10;;;10.10;99.90;;;;;;5024450;28;20127;-76
2023/10/21 02:00:11;;;;;;;18.40;6.22;;;10.10;99.90;;;;;;5042022;28;20083;-76
2023/10/21 02:02:37;;;;;;;23.88;8.27;;;10.10;99.90;;;;;;5055690;28;20036;-76
2023/10/21 02:05:04;;;;;;;19.00;6.43;;;10.20;99.90;;;;;;5047604;28;20041;-76
2023/10/21 02:07:36;;;;;;;22.50;7.20;;;10.20;99.90;;;;;;5042220;28;20094;-76
2023/10/21 02:10:01;;;;;;;23.42;7.93;;;10.20;99.90;;;;;;5041509;28;20083;-76
2023/10/21 02:12:30;;;;;;;35.25;9.98;;;10.20;99.90;;;;;;5040198;28;20081;-77
2023/10/21 02:14:55;;;;;;;27.27;7.93;;;10.20;99.90;;;;;;5041387;28;20095;-76
2023/10/21 02:17:21;;;;;;;16.00;6.43;;;10.20;99.90;;;;;;5042215;28;20491;-77
2023/10/21 02:19:46;;;;;;;30.35;7.25;;;10.20;99.90;;;;;;5041550;28;20120;-77
2023/10/21 02:22:12;;;;;;;28.45;7.55;;;10.20;99.90;;;;;;5041200;28;20056;-77
2023/10/21 02:24:37;;;;;;;24.63;7.68;;;10.20;99.90;;;;;;5043085;28;20118;-77
2023/10/21 02:27:04;;;;;;;25.38;7.40;;;10.10;99.90;;;;;;5041730;28;20041;-77
2023/10/21 02:29:31;;;;;;;16.92;6.43;;;10.20;99.90;;;;;;5042611;28;20037;-77
2023/10/21 02:31:57;;;;;;;33.05;8.15;;;10.20;99.90;;;;;;5040422;28;20040;-77
2023/10/21 02:34:22;;;;;;;22.95;7.20;;;10.20;99.90;;;;;;5042031;28;20093;-76
2023/10/21 02:36:48;;;;;;;24.35;7.22;;;10.20;99.90;;;;;;5041908;28;20394;-77
2023/10/21 02:39:16;;;;;;;24.42;7.80;;;10.20;99.90;;;;;;5041895;28;20077;-77
2023/10/21 02:41:41;;;;;;;23.98;7.25;;;10.20;99.90;;;;;;5021614;28;20052;-76
2023/10/21 02:44:07;;;;;;;15.40;6.55;;;10.20;99.90;;;;;;5021728;28;20041;-76
2023/10/21 02:46:32;;;;;;;27.17;7.32;;;10.20;99.90;;;;;;5022316;28;20041;-76
2023/10/21 02:48:58;;;;;;;21.65;6.60;;;10.20;99.90;;;;;;5020823;28;20044;-76
2023/10/21 02:51:24;;;;;;;16.15;5.47;;;10.20;99.90;;;;;;5021016;28;20079;-76
2023/10/21 02:53:50;;;;;;;19.80;6.28;;;10.20;99.90;;;;;;5008809;28;20072;-77
2023/10/21 02:56:15;;;;;;;14.32;5.38;;;10.20;99.90;;;;;;5041365;28;20499;-76
2023/10/21 02:58:41;;;;;;;21.92;5.03;;;10.20;99.90;;;;;;5040821;28;20462;-77
2023/10/21 03:01:24;;;;;;;21.95;6.60;;;10.20;99.90;;;;;;5024751;28;20090;-76
2023/10/21 03:03:51;;;;;;;14.98;6.53;;;10.20;99.90;;;;;;5040670;28;20041;-77
2023/10/21 03:06:17;;;;;;;17.80;5.85;;;10.20;99.90;;;;;;5040734;28;20131;-77
2023/10/21 03:08:43;;;;;;;17.17;5.85;;;10.20;99.90;;;;;;5024380;28;20044;-77
2023/10/21 03:11:09;;;;;;;15.32;4.70;;;10.20;99.90;;;;;;5040628;28;20098;-77
2023/10/21 03:13:36;;;;;;;23.60;6.85;;;10.20;99.90;;;;;;5040913;28;20060;-76
2023/10/21 03:16:10;;;;;;;21.75;5.93;;;10.20;99.90;;;;;;5040916;28;20068;-77
2023/10/21 03:18:37;;;;;;;13.88;5.55;;;10.20;99.90;;;;;;5040933;28;20045;-76
2023/10/21 03:21:03;;;;;;;13.70;5.13;;;10.20;99.90;;;;;;5041987;28;20076;-76
2023/10/21 03:23:30;;;;;;;14.30;5.75;;;10.20;99.90;;;;;;5040175;28;20045;-76
2023/10/21 03:26:03;;;;;;;14.23;4.95;;;10.20;99.90;;;;;;5040996;28;20132;-76
2023/10/21 03:28:30;;;;;;;12.68;4.65;;;10.20;99.90;;;;;;5040747;28;20049;-77
2023/10/21 03:31:00;;;;;;;13.45;5.78;;;10.20;99.90;;;;;;5042017;28;20041;-77
2023/10/21 03:33:27;;;;;;;16.25;4.53;;;10.20;99.90;;;;;;5039796;28;20045;-76
2023/10/21 03:36:04;;;;;;;17.83;6.32;;;10.20;99.90;;;;;;5041698;28;20045;-76
2023/10/21 03:38:30;;;;;;;12.00;4.60;;;10.20;99.90;;;;;;5041389;28;20049;-77
2023/10/21 03:41:08;;;;;;;19.00;4.90;;;10.20;99.90;;;;;;5039765;28;20059;-76
2023/10/21 03:43:34;;;;;;;17.35;5.28;;;10.30;99.90;;;;;;5043906;28;20041;-76
2023/10/21 03:46:14;;;;;;;16.58;5.82;;;10.30;99.90;;;;;;5044674;28;20060;-76
2023/10/21 03:48:40;;;;;;;17.58;5.93;;;10.20;99.90;;;;;;5044500;28;20136;-78
2023/10/21 03:51:09;;;;;;;19.00;5.68;;;10.20;99.90;;;;;;5044739;28;20144;-76
2023/10/21 03:53:35;;;;;;;12.38;4.55;;;10.30;99.90;;;;;;5044483;28;20037;-76
2023/10/21 03:56:02;;;;;;;16.65;5.53;;;10.20;99.90;;;;;;5043272;28;20047;-76
2023/10/21 03:58:29;;;;;;;18.92;5.13;;;10.20;99.90;;;;;;5045426;28;20091;-76
2023/10/21 04:00:56;;;;;;;11.55;4.30;;;10.20;99.90;;;;;;5044250;28;20131;-76
2023/10/21 04:03:26;;;;;;;13.70;4.55;;;10.20;99.90;;;;;;5045081;28;20369;-76
2023/10/21 04:05:55;;;;;;;18.20;5.97;;;10.20;99.90;;;;;;5045740;28;20041;-77
2023/10/21 04:08:21;;;;;;;14.82;4.40;;;10.20;99.90;;;;;;5045065;28;20045;-76
2023/10/21 04:10:47;;;;;;;14.00;4.10;;;10.10;99.90;;;;;;5044057;28;20044;-77
2023/10/21 04:13:13;;;;;;;15.25;5.95;;;10.10;99.90;;;;;;5042778;28;20493;-77
2023/10/21 04:15:39;;;;;;;11.98;4.85;;;10.10;99.90;;;;;;5044728;28;20098;-76
2023/10/21 04:18:05;;;;;;;18.50;4.85;;;10.10;99.90;;;;;;5044181;28;20399;-76
2023/10/21 04:20:34;;;;;;;12.60;4.93;;;10.10;99.90;;;;;;5045025;28;20051;-76
2023/10/21 04:22:59;;;;;;;18.67;4.63;;;10.10;99.90;;;;;;5043938;28;20201;-77
2023/10/21 04:25:28;;;;;;;12.90;5.47;;;10.10;99.90;;;;;;5042943;28;20499;-76
2023/10/21 04:27:55;;;;;;;9.70;3.78;;;10.00;99.90;;;;;;5042964;28;20056;-76
2023/10/21 04:30:22;;;;;;;13.27;4.68;;;10.10;99.90;;;;;;5044568;28;20151;-76
2023/10/21 04:32:48;;;;;;;18.02;5.32;;;10.10;99.90;;;;;;5043299;28;20124;-76
2023/10/21 04:35:13;;;;;;;27.20;6.07;;;10.10;99.90;;;;;;5044793;28;20444;-76
2023/10/21 04:37:39;;;;;;;12.45;4.45;;;10.00;99.90;;;;;;5045211;28;20045;-76
2023/10/21 04:40:05;;;;;;;11.07;4.45;;;10.00;99.90;;;;;;5043837;28;20052;-76
2023/10/21 04:42:31;;;;;;;13.32;4.38;;;10.00;99.90;;;;;;5043790;28;20147;-76
2023/10/21 04:44:57;;;;;;;10.70;4.72;;;10.00;99.90;;;;;;5043500;28;20124;-76
2023/10/21 04:47:22;;;;;;;12.82;5.00;;;10.00;99.90;;;;;;5042893;28;20086;-76
2023/10/21 04:49:48;;;;;;;12.25;4.53;;;10.00;99.90;;;;;;5044353;28;20395;-76
2023/10/21 04:52:15;;;;;;;12.43;4.55;;;10.00;99.90;;;;;;5042901;28;20086;-76
2023/10/21 04:54:44;;;;;;;17.63;5.65;;;10.00;99.90;;;;;;5042834;28;20045;-77
2023/10/21 04:57:10;;;;;;;14.10;4.20;;;10.00;99.90;;;;;;5042035;28;20040;-78
2023/10/21 04:59:36;;;;;;;15.30;4.72;;;10.00;99.90;;;;;;5026751;28;20727;-76
2023/10/21 05:02:04;;;;;;;11.27;4.80;;;9.90;99.90;;;;;;5044285;28;20041;-76
2023/10/21 05:04:30;;;;;;;13.98;5.20;;;9.90;99.90;;;;;;5043801;28;20044;-77
2023/10/21 05:06:55;;;;;;;13.48;6.13;;;9.90;99.90;;;;;;5042853;28;20134;-77
2023/10/21 05:09:21;;;;;;;18.52;5.18;;;9.90;99.90;;;;;;5042853;28;20095;-77
2023/10/21 05:11:46;;;;;;;21.50;6.10;;;10.00;99.90;;;;;;5041570;28;20055;-77
2023/10/21 05:14:12;;;;;;;17.05;5.32;;;9.90;99.90;;;;;;5042315;28;20060;-77
2023/10/21 05:16:38;;;;;;;12.65;4.78;;;9.90;99.90;;;;;;5044709;28;20542;-77
2023/10/21 05:19:04;;;;;;;19.85;5.90;;;9.90;99.90;;;;;;5044006;28;20144;-76
2023/10/21 05:21:31;;;;;;;20.80;6.07;;;9.90;99.90;;;;;;5025776;28;20060;-77
2023/10/21 05:23:58;;;;;;;23.75;7.38;;;10.00;99.90;;;;;;5042975;28;20110;-76
2023/10/21 05:26:25;;;;;;;16.08;6.57;;;9.90;99.90;;;;;;5035636;28;20045;-76
2023/10/21 05:28:51;;;;;;;21.58;7.15;;;9.90;99.90;;;;;;5023832;28;20051;-76
2023/10/21 05:31:16;;;;;;;16.88;6.05;;;9.90;99.90;;;;;;5035504;28;20036;-76
2023/10/21 05:33:42;;;;;;;25.40;7.47;;;9.90;99.90;;;;;;5044826;28;20049;-76
2023/10/21 05:36:08;;;;;;;18.15;7.13;;;9.90;99.90;;;;;;5043260;28;20132;-76
2023/10/21 05:38:34;;;;;;;20.02;6.85;;;9.90;99.90;;;;;;5042170;28;20533;-76
2023/10/21 05:40:59;;;;;;;23.40;7.65;;;9.90;99.90;;;;;;5041677;28;20052;-76
2023/10/21 05:43:25;;;;;;;27.50;8.20;;;9.90;99.90;;;;;;5053105;28;20457;-77
2023/10/21 05:45:50;;;;;;;26.08;8.02;;;9.90;99.90;;;;;;5041935;28;20105;-77
2023/10/21 05:48:16;;;;;;;24.20;9.05;;;9.80;99.90;;;;;;5046672;28;20053;-77
2023/10/21 05:50:41;;;;;;;35.33;8.48;;;9.90;99.90;;;;;;5045389;28;20033;-77
2023/10/21 05:53:07;;;;;;;31.23;10.10;;;9.90;99.90;;;;;;5025523;28;20041;-77
2023/10/21 05:55:38;;;;;;;21.15;8.65;;;9.90;99.90;;;;;;5047729;28;20074;-77
2023/10/21 05:58:04;;;;;;;33.30;9.40;;;9.90;99.90;;;;;;5041996;28;20051;-76
2023/10/21 06:00:31;;;;;;;29.73;9.07;;;9.90;99.90;;;;;;5021666;28;20053;-76
2023/10/21 06:02:56;;;;;;;24.90;9.40;;;9.90;99.90;;;;;;5036972;28;20542;-76
2023/10/21 06:05:23;;;;;;;20.40;7.93;;;9.90;99.90;;;;;;5041675;28;20124;-76
2023/10/21 06:07:48;;;;;;;29.73;10.35;;;9.90;99.90;;;;;;5039962;28;20056;-76
2023/10/21 06:10:14;;;;;;;26.92;10.18;;;9.80;99.90;;;;;;5042274;28;20045;-77
2023/10/21 06:12:40;;;;;;;37.05;10.20;;;9.90;99.90;;;;;;5040172;28;20129;-78
2023/10/21 06:15:06;;;;;;;37.22;11.18;;;9.80;99.90;;;;;;5040507;28;20407;-76
2023/10/21 06:17:32;;;;;;;22.35;8.75;;;9.90;99.90;;;;;;5037311;28;20033;-77
2023/10/21 06:19:58;;;;;;;23.00;10.40;;;9.80;99.90;;;;;;5034626;28;20041;-77
2023/10/21 06:22:24;;;;;;;26.63;8.32;;;9.90;99.90;;;;;;5025485;28;20087;-76
2023/10/21 06:24:49;;;;;;;24.27;10.35;;;9.80;99.90;;;;;;5017296;28;20060;-77
2023/10/21 06:27:15;;;;;;;46.35;11.57;;;9.90;99.90;;;;;;5040905;28;20055;-76
2023/10/21 06:29:40;;;;;;;36.03;11.27;;;9.90;99.90;;;;;;5041650;28;20040;-77
2023/10/21 06:32:08;;;;;;;56.70;12.82;;;9.90;99.90;;;;;;5040040;28;20041;-77
2023/10/21 06:34:34;;;;;;;29.27;10.95;;;9.80;99.90;;;;;;5024554;28;20099;-75
2023/10/21 06:37:00;;;;;;;37.80;11.13;;;9.80;99.90;;;;;;5036447;28;20470;-75
2023/10/21 06:39:25;;;;;;;43.70;13.00;;;9.80;99.90;;;;;;5034749;28;20041;-75
2023/10/21 06:41:52;;;;;;;33.22;10.25;;;9.80;99.90;;;;;;5035779;28;20045;-76
2023/10/21 06:44:17;;;;;;;38.47;10.93;;;9.80;99.90;;;;;;5035465;28;20083;-76
2023/10/21 06:46:43;;;;;;;33.53;9.55;;;9.90;99.90;;;;;;5036977;28;20087;-76
2023/10/21 06:49:09;;;;;;;39.55;12.43;;;9.80;99.90;;;;;;5028055;28;20053;-76
2023/10/21 06:51:38;;;;;;;26.45;9.75;;;9.80;99.90;;;;;;5039918;28;20036;-75
2023/10/21 06:54:05;;;;;;;41.78;10.25;;;9.80;99.90;;;;;;5042024;28;20713;-76
2023/10/21 06:56:31;;;;;;;37.15;10.40;;;9.80;99.90;;;;;;5040843;28;20067;-76
2023/10/21 06:58:57;;;;;;;32.33;8.45;;;9.80;99.90;;;;;;5032975;28;20483;-76
2023/10/21 07:01:22;;;;;;;42.25;11.82;;;9.80;99.90;;;;;;5041049;28;20037;-76
2023/10/21 07:03:49;;;;;;;26.45;8.68;;;9.90;99.90;;;;;;5035290;28;20052;-76
2023/10/21 07:06:16;;;;;;;31.25;9.13;;;9.90;99.90;;;;;;5039118;28;20511;-76
2023/10/21 07:08:42;;;;;;;26.92;7.53;;;10.00;99.90;;;;;;5042021;28;20120;-76
2023/10/21 07:11:08;;;;;;;26.42;8.90;;;10.00;99.90;;;;;;5037539;28;20128;-76
2023/10/21 07:13:34;;;;;;;25.65;9.20;;;10.10;99.90;;;;;;5041078;28;20063;-76
2023/10/21 07:16:12;;;;;;;26.35;10.20;;;10.10;99.90;;;;;;5040424;28;20730;-76
2023/10/21 07:18:39;;;;;;;27.40;8.85;;;10.10;99.90;;;;;;5041562;28;20419;-77
2023/10/21 07:21:05;;;;;;;22.88;8.10;;;10.20;99.90;;;;;;5042098;28;20041;-75
2023/10/21 07:23:31;;;;;;;28.55;8.90;;;10.20;99.90;;;;;;5024272;28;20060;-76
2023/10/21 07:25:57;;;;;;;30.98;8.10;;;10.30;99.90;;;;;;5039522;28;20514;-76
2023/10/21 07:28:22;;;;;;;35.20;10.18;;;10.40;99.90;;;;;;5041320;28;20041;-76
2023/10/21 07:30:48;;;;;;;25.17;8.25;;;10.40;99.90;;;;;;5040579;28;20056;-76
2023/10/21 07:33:14;;;;;;;34.25;9.30;;;10.50;99.90;;;;;;5023188;28;20171;-76
2023/10/21 07:35:40;;;;;;;27.10;7.78;;;10.60;99.90;;;;;;5053529;28;20127;-77
2023/10/21 07:38:05;;;;;;;22.65;8.60;;;10.60;99.90;;;;;;5044233;28;20037;-76
2023/10/21 07:40:31;;;;;;;27.23;8.30;;;10.60;99.90;;;;;;5038841;28;20194;-76
2023/10/21 07:42:57;;;;;;;18.05;7.78;;;10.70;99.90;;;;;;5040947;28;20041;-76
2023/10/21 07:45:23;;;;;;;24.55;8.15;;;10.70;99.90;;;;;;5042141;28;20045;-75
2023/10/21 07:47:49;;;;;;;22.83;9.48;;;10.80;99.90;;;;;;5040398;28;20056;-76
2023/10/21 07:50:14;;;;;;;26.58;7.65;;;10.80;99.90;;;;;;5046042;28;20051;-76
2023/10/21 07:52:40;;;;;;;20.45;7.88;;;10.80;99.90;;;;;;5059216;28;20035;-78
2023/10/21 07:55:06;;;;;;;20.85;7.63;;;10.90;99.90;;;;;;5040790;28;20064;-75
2023/10/21 07:57:32;;;;;;;22.77;8.60;;;10.90;99.90;;;;;;5038648;28;20044;-76
2023/10/21 07:59:59;;;;;;;22.77;6.47;;;11.00;99.90;;;;;;5040156;28;20053;-75
2023/10/21 08:02:24;;;;;;;23.55;8.60;;;11.10;99.90;;;;;;5057750;28;20032;-75
2023/10/21 08:04:50;;;;;;;25.67;7.25;;;11.10;99.90;;;;;;5039759;28;20128;-75
2023/10/21 08:07:15;;;;;;;23.20;7.65;;;11.20;99.90;;;;;;5039933;28;20099;-75
2023/10/21 08:09:41;;;;;;;23.52;8.43;;;11.20;99.90;;;;;;5049583;28;20048;-76
2023/10/21 08:12:08;;;;;;;23.48;7.63;;;11.30;99.90;;;;;;5058665;28;20140;-75
2023/10/21 08:14:36;;;;;;;20.20;6.80;;;11.30;99.90;;;;;;5044321;28;20069;-74
2023/10/21 08:17:04;;;;;;;31.73;7.47;;;11.30;99.90;;;;;;5022737;28;20071;-76
2023/10/21 08:19:31;;;;;;;25.10;7.85;;;11.30;99.90;;;;;;5039435;28;20049;-77
2023/10/21 08:21:57;;;;;;;24.00;7.88;;;11.40;99.90;;;;;;5036966;28;20403;-77
2023/10/21 08:24:23;;;;;;;19.48;6.35;;;11.40;99.90;;;;;;5039644;28;20387;-77
2023/10/21 08:26:49;;;;;;;20.58;6.97;;;11.40;99.90;;;;;;5040635;28;20041;-81
2023/10/21 08:29:14;;;;;;;25.30;7.70;;;11.50;99.90;;;;;;5042304;28;20044;-79
2023/10/21 08:31:40;;;;;;;17.55;7.05;;;11.50;99.90;;;;;;5043609;28;20091;-77
2023/10/21 08:34:09;;;;;;;27.60;6.88;;;11.60;99.90;;;;;;5043311;28;20553;-77
2023/10/21 08:36:35;;;;;;;25.50;7.82;;;11.60;99.90;;;;;;5045119;28;20693;-77
2023/10/21 08:39:01;;;;;;;22.10;7.72;;;11.80;99.90;;;;;;5041231;28;20037;-76
2023/10/21 08:41:35;;;;;;;25.63;8.48;;;11.80;99.90;;;;;;5040025;28;20040;-77
2023/10/21 08:44:00;;;;;;;24.38;7.97;;;11.80;99.90;;;;;;5041661;28;20036;-77
2023/10/21 08:46:26;;;;;;;26.58;8.27;;;11.90;99.90;;;;;;5043875;28;20542;-76
2023/10/21 08:48:53;;;;;;;26.00;8.60;;;11.90;99.90;;;;;;5042943;28;20041;-77
2023/10/21 08:51:20;;;;;;;22.38;7.28;;;11.90;99.90;;;;;;5042941;28;20106;-75
2023/10/21 08:53:47;;;;;;;34.83;8.38;;;12.00;99.90;;;;;;5043675;28;20056;-74
2023/10/21 08:56:14;;;;;;;19.08;7.20;;;12.00;99.90;;;;;;5038922;28;20077;-75
2023/10/21 08:58:39;;;;;;;21.83;8.50;;;12.00;99.90;;;;;;5025709;28;20049;-77
2023/10/21 09:01:05;;;;;;;24.60;8.10;;;12.10;99.90;;;;;;5033167;28;20168;-76
2023/10/21 09:03:32;;;;;;;23.67;7.47;;;12.10;99.90;;;;;;5042635;28;20419;-77
2023/10/21 09:06:19;;;;;;;20.80;7.07;;;12.10;99.90;;;;;;5044611;28;20123;-79
2023/10/21 09:08:47;;;;;;;23.85;7.95;;;12.10;99.90;;;;;;5044523;28;20049;-77
2023/10/21 09:11:15;;;;;;;22.90;6.45;;;12.20;99.90;;;;;;5043166;28;20392;-77
2023/10/21 09:13:41;;;;;;;18.00;6.20;;;12.30;99.90;;;;;;5043550;28;20524;-77
2023/10/21 09:16:26;;;;;;;17.40;6.53;;;12.30;99.90;;;;;;5043283;28;20675;-77
2023/10/21 09:18:58;;;;;;;18.83;6.40;;;12.40;99.90;;;;;;5025934;28;20044;-80
2023/10/21 09:21:41;;;;;;;27.87;8.00;;;12.40;99.90;;;;;;5041581;28;20057;-77
2023/10/21 09:24:11;;;;;;;14.23;4.95;;;12.50;99.90;;;;;;5035787;28;20048;-76
2023/10/21 09:26:46;;;;;;;13.07;5.88;;;12.60;99.90;;;;;;5024738;28;20187;-76
2023/10/21 09:29:13;;;;;;;28.80;5.97;;;12.60;99.90;;;;;;5042051;28;20049;-76
2023/10/21 09:31:47;;;;;;;15.57;5.70;;;12.70;99.90;;;;;;5042649;28;20539;-77
2023/10/21 09:34:30;;;;;;;23.13;6.30;;;12.70;99.90;;;;;;5042270;28;20045;-76
2023/10/21 09:36:57;;;;;;;16.50;5.70;;;12.80;99.90;;;;;;5043739;28;20462;-76
2023/10/21 09:39:28;;;;;;;25.85;6.35;;;12.80;99.90;;;;;;5037400;28;20041;-76
2023/10/21 09:41:54;;;;;;;16.75;5.78;;;12.80;99.90;;;;;;5024265;28;20072;-76
2023/10/21 09:44:20;;;;;;;18.55;6.75;;;12.80;99.90;;;;;;5042872;28;20029;-76
2023/10/21 09:46:50;;;;;;;21.27;6.10;;;12.80;99.90;;;;;;5024997;28;20060;-76
2023/10/21 09:49:19;;;;;;;16.23;6.03;;;12.80;99.90;;;;;;5042259;28;20072;-75
2023/10/21 09:52:07;;;;;;;16.63;5.50;;;12.80;99.90;;;;;;5042351;28;20053;-76
2023/10/21 09:55:07;;;;;;;18.08;5.47;;;12.80;99.90;;;;;;5043428;28;20502;-76
2023/10/21 09:57:37;;;;;;;18.17;5.47;;;12.80;99.90;;;;;;5026338;28;20518;-76
2023/10/21 10:00:07;;;;;;;10.73;4.25;;;12.80;99.90;;;;;;5041731;28;20104;-79
2023/10/21 10:02:35;;;;;;;11.57;4.10;;;12.80;99.90;;;;;;5042528;28;20509;-77
2023/10/21 10:05:06;;;;;;;11.93;4.63;;;12.80;99.90;;;;;;5040555;28;20115;-77
2023/10/21 10:07:35;;;;;;;11.57;4.53;;;12.80;99.90;;;;;;5039440;28;20029;-79
2023/10/21 10:10:02;;;;;;;14.65;5.07;;;12.70;99.90;;;;;;5038388;28;20044;-84
2023/10/21 10:12:53;;;;;;;16.15;4.80;;;12.70;99.90;;;;;;5023737;28;20061;-78
2023/10/21 10:15:27;;;;;;;10.82;4.03;;;12.70;99.90;;;;;;5040555;28;20061;-77
2023/10/21 10:17:53;;;;;;;10.25;4.63;;;12.70;99.90;;;;;;5038881;28;20309;-77
2023/10/21 10:20:28;;;;;;;11.82;4.80;;;12.70;99.90;;;;;;5021242;28;20048;-77
2023/10/21 10:23:04;;;;;;;11.40;3.90;;;12.70;99.90;;;;;;5019761;28;20044;-77
2023/10/21 10:25:31;;;;;;;11.60;3.53;;;12.70;99.90;;;;;;5035232;28;20683;-77
2023/10/21 10:28:07;;;;;;;9.05;2.92;;;12.70;99.90;;;;;;5036366;28;20033;-78
2023/10/21 10:30:34;;;;;;;7.30;2.78;;;12.70;99.90;;;;;;5035918;28;20040;-77
2023/10/21 10:33:31;;;;;;;12.73;3.20;;;12.70;99.90;;;;;;5039788;28;20052;-78
2023/10/21 10:35:57;;;;;;;12.07;2.70;;;12.80;99.90;;;;;;5019769;28;20065;-78
2023/10/21 10:38:32;;;;;;;10.90;3.10;;;12.80;99.90;;;;;;5032983;28;20041;-82
2023/10/21 10:41:14;;;;;;;12.13;3.05;;;12.80;99.90;;;;;;5038192;28;20055;-78
2023/10/21 10:43:41;;;;;;;;;;;12.90;99.90;;;;;;5037394;28;20472;-78
2023/10/21 10:46:07;;;;;;;10.27;2.65;;;12.90;99.90;;;;;;5037012;28;19940;-77
2023/10/21 10:48:34;;;;;;;7.65;2.80;;;12.90;99.90;;;;;;5026476;28;20449;-77
2023/10/21 10:51:02;;;;;;;8.27;3.00;;;12.80;99.90;;;;;;5039688;28;20107;-77
2023/10/21 10:53:29;;;;;;;7.18;2.90;;;12.90;99.90;;;;;;5040014;28;20045;-77
2023/10/21 10:55:55;;;;;;;8.45;2.47;;;12.90;99.90;;;;;;5040749;28;20125;-77
2023/10/21 10:58:22;;;;;;;4.55;2.65;;;12.80;99.90;;;;;;5041324;28;20040;-78
2023/10/21 11:00:48;;;;;;;5.40;2.63;;;12.80;99.90;;;;;;5042441;28;20045;-77
2023/10/21 11:03:24;;;;;;;7.10;2.47;;;12.80;99.90;;;;;;5040538;28;20045;-78
2023/10/21 11:05:52;;;;;;;4.00;2.40;;;12.80;99.90;;;;;;5040276;28;20108;-78
2023/10/21 11:08:18;;;;;;;10.45;3.05;;;12.80;99.90;;;;;;5041688;28;20659;-78
2023/10/21 11:10:43;;;;;;;4.95;2.03;;;12.80;99.90;;;;;;5042599;28;20051;-78
2023/10/21 11:13:09;;;;;;;12.15;3.30;;;12.90;99.90;;;;;;5041400;28;20621;-78
2023/10/21 11:15:44;;;;;;;7.45;2.80;;;12.90;99.90;;;;;;5041888;28;20075;-77
2023/10/21 11:18:11;;;;;;;4.47;2.50;;;12.90;99.90;;;;;;5019697;28;20033;-77
2023/10/21 11:20:48;;;;;;;6.82;2.08;;;13.00;99.90;;;;;;5040179;28;20053;-78
2023/10/21 11:23:18;;;;;;;5.60;2.40;;;13.00;99.90;;;;;;5041062;28;20033;-78
2023/10/21 11:25:49;;;;;;;5.82;2.28;;;13.20;99.90;;;;;;5042166;28;20048;-81
2023/10/21 11:28:16;;;;;;;7.97;1.90;;;13.20;99.90;;;;;;5049760;28;20837;-77
2023/10/21 11:30:46;;;;;;;4.68;2.00;;;13.20;99.90;;;;;;5042032;28;20046;-77
2023/10/21 11:33:12;;;;;;;2.97;1.90;;;13.20;99.90;;;;;;5020565;28;20129;-77
2023/10/21 11:35:42;;;;;;;4.75;1.67;;;13.20;99.90;;;;;;5025203;28;20470;-79
2023/10/21 11:38:07;;;;;;;3.22;1.83;;;13.20;99.90;;;;;;5039397;28;20079;-78
2023/10/21 11:40:36;;;;;;;3.05;1.70;;;13.10;99.90;;;;;;5039077;28;20415;-77
2023/10/21 11:43:06;;;;;;;3.83;1.88;;;13.10;99.90;;;;;;5023015;28;20037;-77
2023/10/21 11:45:32;;;;;;;2.47;1.45;;;13.10;99.90;;;;;;5039760;28;20407;-79
2023/10/21 11:48:01;;;;;;;4.18;1.58;;;13.10;99.90;;;;;;5029627;28;20049;-77
2023/10/21 11:50:33;;;;;;;4.70;1.42;;;13.00;99.90;;;;;;5038251;28;20102;-78
2023/10/21 11:53:06;;;;;;;4.85;1.80;;;13.00;99.90;;;;;;5043582;28;20094;-79
2023/10/21 12:07:07;;;;;;;3.03;2.00;;;12.90;99.90;;;;;;5043743;28;20079;-77
2023/10/21 12:12:15;;;;;;;3.25;1.60;;;12.90;99.90;;;;;;5048364;28;20047;-78
2023/10/21 12:23:14;;;;;;;2.22;0.85;;;13.00;99.90;;;;;;5042750;28;20403;-76
2023/10/21 12:38:56;;;;;;;2.45;1.00;;;13.10;99.90;;;;;;5043329;28;20041;-78
2023/10/21 12:41:26;;;;;;;1.60;1.02;;;13.10;99.90;;;;;;5042675;28;20044;-77
2023/10/21 12:43:55;;;;;;;2.83;0.90;;;13.10;99.90;;;;;;5043470;28;20041;-78
2023/10/21 12:46:24;;;;;;;2.22;0.85;;;13.10;99.90;;;;;;5043965;28;20531;-79
2023/10/21 12:48:54;;;;;;;2.88;0.85;;;13.10;99.90;;;;;;5026704;28;20083;-78
2023/10/21 12:51:26;;;;;;;1.48;1.17;;;13.20;99.90;;;;;;5040289;28;20813;-79
2023/10/21 12:53:51;;;;;;;1.85;0.93;;;13.20;99.90;;;;;;5043363;28;20048;-78
2023/10/21 12:56:18;;;;;;;2.60;1.40;;;13.20;99.90;;;;;;5043747;28;20052;-79
2023/10/21 12:58:44;;;;;;;2.35;1.00;;;13.20;99.90;;;;;;5043803;28;20045;-79
2023/10/21 13:01:12;;;;;;;1.38;1.20;;;13.20;99.90;;;;;;5041700;28;20080;-78
2023/10/21 13:03:38;;;;;;;3.88;0.90;;;13.20;99.90;;;;;;5044313;28;20033;-79
2023/10/21 13:06:07;;;;;;;2.75;1.35;;;13.20;99.90;;;;;;5042068;28;20501;-78
2023/10/21 13:08:33;;;;;;;1.70;1.20;;;13.20;99.90;;;;;;5042595;28;20064;-78
2023/10/21 13:10:59;;;;;;;3.05;1.23;;;13.20;99.90;;;;;;5043568;28;20074;-78
2023/10/21 13:13:27;;;;;;;1.98;0.95;;;13.20;99.90;;;;;;5043774;28;20041;-79
2023/10/21 13:15:54;;;;;;;4.57;1.20;;;13.20;99.90;;;;;;5041472;28;20106;-79
2023/10/21 13:18:21;;;;;;;1.92;1.10;;;13.20;99.90;;;;;;5042517;28;20120;-78